Time;durP1;ratioP1;P1;durP2;ratioP2;P2;SDS_P1;SDS_P2;PMS_P1;PMS_P2;Temp;Humidity;BMP_temperature;BMP_pressure;BME280_temperature;BME280_humidity;BME280_pressure;Samples;Min_cycle;Max_cycle;Signal;HPM_P1;HPM_P2
2022/04/18 00:00:54;;;;;;;3.30;1.80;;;;;;;6.93;43.89;100144.19;4467659;32;34241;-78
2022/04/18 00:03:40;;;;;;;3.75;1.67;;;;;;;6.45;45.84;100146.34;4466995;32;34565;-78
2022/04/18 00:06:27;;;;;;;4.03;1.87;;;;;;;6.53;45.22;100143.09;4468290;32;33936;-78
2022/04/18 00:09:13;;;;;;;3.08;1.55;;;;;;;7.12;43.82;100138.16;4465177;32;34563;-78
2022/04/18 00:12:00;;;;;;;3.92;1.75;;;;;;;6.58;45.05;100139.56;4468437;32;34175;-78
2022/04/18 00:14:48;;;;;;;3.80;1.80;;;;;;;5.24;44.59;100144.88;4467442;32;34851;-78
2022/04/18 00:17:34;;;;;;;4.55;1.55;;;;;;;6.60;43.81;100139.28;4466573;32;35030;-77
2022/04/18 00:20:20;;;;;;;3.70;1.67;;;;;;;6.94;43.40;100134.09;4466701;32;34787;-78
2022/04/18 00:23:07;;;;;;;3.08;1.62;;;;;;;5.94;44.60;100138.09;4468160;32;35279;-77
2022/04/18 00:25:53;;;;;;;2.92;1.52;;;;;;;7.02;43.78;100127.28;4466306;32;34223;-78
2022/04/18 00:28:39;;;;;;;4.18;1.77;;;;;;;7.51;43.36;100126.59;4466985;32;34969;-77
2022/04/18 00:31:26;;;;;;;6.68;1.85;;;;;;;7.73;41.91;100121.59;4467020;32;33477;-78
2022/04/18 00:34:14;;;;;;;2.75;1.62;;;;;;;7.00;43.20;100127.53;4467486;32;33637;-78
2022/04/18 00:37:00;;;;;;;3.28;1.37;;;;;;;7.12;42.57;100119.09;4467921;32;35628;-77
2022/04/18 00:39:46;;;;;;;2.58;1.65;;;;;;;6.54;44.26;100119.41;4467218;32;34922;-78
2022/04/18 00:42:33;;;;;;;4.82;1.40;;;;;;;7.34;43.13;100116.00;4465006;32;34643;-78
2022/04/18 00:45:20;;;;;;;5.35;1.98;;;;;;;7.77;42.37;100117.22;4465629;32;35136;-78
2022/04/18 00:48:06;;;;;;;3.80;1.75;;;;;;;7.47;41.94;100109.97;4456197;32;33839;-77
2022/04/18 00:50:52;;;;;;;3.33;1.48;;;;;;;7.21;42.92;100101.87;4455700;32;36434;-78
2022/04/18 00:53:40;;;;;;;2.97;1.40;;;;;;;7.68;41.68;100099.78;4466096;32;34216;-78
2022/04/18 00:56:26;;;;;;;3.12;1.70;;;;;;;8.08;41.05;100101.47;4467283;32;35004;-78
2022/04/18 00:59:13;;;;;;;2.45;1.50;;;;;;;7.88;42.65;100105.16;4466475;32;34553;-77
2022/04/18 01:01:59;;;;;;;2.35;1.50;;;;;;;8.11;42.14;100100.91;4467369;32;35895;-78
2022/04/18 01:04:46;;;;;;;5.15;2.12;;;;;;;7.92;43.00;100105.41;4466734;32;34612;-78
2022/04/18 01:07:36;;;;;;;3.33;1.83;;;;;;;7.04;44.32;100106.84;4466186;32;34072;-77
2022/04/18 01:10:23;;;;;;;4.53;2.00;;;;;;;7.82;43.00;100098.06;4466005;32;34696;-78
2022/04/18 01:13:09;;;;;;;2.95;1.52;;;;;;;8.06;43.52;100090.03;4464497;32;34505;-77
2022/04/18 01:15:57;;;;;;;2.17;1.35;;;;;;;8.16;43.96;100089.13;4465847;32;34759;-78
2022/04/18 01:18:48;;;;;;;3.72;1.80;;;;;;;8.00;44.35;100088.44;4467563;32;35272;-77
2022/04/18 01:21:35;;;;;;;2.87;1.58;;;;;;;8.02;42.62;100086.22;4463434;32;34673;-77
2022/04/18 01:30:31;;;;;;;3.35;1.58;;;;;;;7.86;44.25;100068.34;4467453;32;35122;-78
2022/04/18 01:33:23;;;;;;;5.37;1.92;;;;;;;7.95;45.44;100057.63;4466140;32;34607;-78
2022/04/18 01:36:09;;;;;;;4.35;2.20;;;;;;;6.83;45.19;100064.37;4464189;32;34887;-81
2022/04/18 01:38:56;;;;;;;3.72;1.95;;;;;;;6.96;45.37;100061.91;4463444;32;35547;-81
2022/04/18 01:41:42;;;;;;;3.70;1.92;;;;;;;6.46;45.89;100065.50;4463478;32;35095;-81
2022/04/18 01:44:29;;;;;;;2.75;1.42;;;;;;;7.41;44.31;100062.03;4464350;32;34677;-80
2022/04/18 01:47:15;;;;;;;3.55;1.67;;;;;;;7.55;44.02;100059.50;4461952;32;35874;-81
2022/04/18 01:50:02;;;;;;;4.90;1.80;;;;;;;7.82;43.39;100059.06;4462578;32;34725;-81
2022/04/18 01:52:49;;;;;;;3.80;1.55;;;;;;;6.56;46.01;100051.91;4465258;32;34034;-81
2022/04/18 01:55:36;;;;;;;4.28;1.73;;;;;;;6.05;46.74;100052.72;4466546;32;34613;-81
2022/04/18 01:58:22;;;;;;;3.65;1.70;;;;;;;6.56;46.41;100046.47;4466506;32;35925;-80
2022/04/18 02:01:08;;;;;;;3.12;1.40;;;;;;;7.29;44.11;100043.25;4466231;32;34115;-81
2022/04/18 02:03:56;;;;;;;3.33;1.70;;;;;;;7.51;43.89;100048.31;4466192;32;35068;-81
2022/04/18 02:06:42;;;;;;;2.40;1.45;;;;;;;7.83;44.85;100036.16;4466898;32;34200;-77
2022/04/18 02:09:29;;;;;;;2.47;1.25;;;;;;;7.82;44.17;100046.22;4466425;32;35070;-79
2022/04/18 02:12:15;;;;;;;3.87;1.62;;;;;;;7.79;43.00;100033.16;4465830;32;34856;-79
2022/04/18 02:15:03;;;;;;;7.43;1.45;;;;;;;7.75;43.30;100034.03;4467719;32;34352;-79
2022/04/18 02:17:49;;;;;;;2.42;1.45;;;;;;;7.75;41.96;100031.31;4455455;32;35101;-79
2022/04/18 02:20:36;;;;;;;3.67;1.45;;;;;;;7.59;43.39;100025.12;4465665;32;35040;-79
2022/04/18 02:23:23;;;;;;;4.18;1.73;;;;;;;7.77;42.66;100029.09;4465062;32;33838;-78
2022/04/18 02:26:10;;;;;;;3.53;1.40;;;;;;;7.82;44.37;100023.59;4466222;32;34230;-78
2022/04/18 02:28:57;;;;;;;3.28;1.42;;;;;;;7.91;42.84;100016.44;4464594;32;34660;-78
2022/04/18 02:34:50;;;;;;;1.90;1.40;;;;;;;7.86;43.99;100011.84;4466171;32;34678;-79
2022/04/18 02:37:37;;;;;;;2.58;1.30;;;;;;;7.78;44.00;100014.38;4467190;32;34248;-79
2022/04/18 02:40:23;;;;;;;3.55;1.42;;;;;;;7.61;44.07;100007.38;4464445;32;34784;-79
2022/04/18 02:43:10;;;;;;;3.70;1.40;;;;;;;7.73;44.52;100004.28;4459691;32;36018;-79
2022/04/18 02:45:57;;;;;;;2.70;1.25;;;;;;;7.66;43.35;100004.62;4466514;32;35530;-79
2022/04/18 02:48:46;;;;;;;2.10;1.33;;;;;;;7.63;45.06;99997.00;4465807;32;34157;-78
2022/04/18 02:51:33;;;;;;;6.03;1.70;;;;;;;7.76;44.28;99994.72;4465231;32;34721;-79
2022/04/18 02:54:19;;;;;;;3.03;1.50;;;;;;;7.59;43.81;99993.19;4465545;32;35563;-78
2022/04/18 02:57:06;;;;;;;3.30;1.15;;;;;;;7.68;45.04;99990.69;4465171;32;34696;-78
2022/04/18 02:59:52;;;;;;;2.42;1.30;;;;;;;7.84;44.67;99989.47;4464551;32;34960;-79
2022/04/18 03:02:39;;;;;;;3.67;1.70;;;;;;;7.79;44.17;99994.16;4466181;32;34111;-79
2022/04/18 03:05:25;;;;;;;2.17;1.15;;;;;;;7.86;45.03;99986.50;4464590;32;35032;-79
2022/04/18 03:08:12;;;;;;;4.82;1.42;;;;;;;7.69;43.84;99992.34;4465561;32;33745;-78
2022/04/18 03:11:09;;;;;;;3.72;1.42;;;;;;;7.64;44.27;99974.09;4466007;32;33925;-78
2022/04/18 03:13:56;;;;;;;3.97;1.60;;;;;;;7.73;44.93;99982.47;4463817;32;35539;-79
2022/04/18 03:16:48;;;;;;;2.87;1.40;;;;;;;7.54;44.33;99974.16;4465985;32;34882;-79
2022/04/18 03:19:34;;;;;;;2.47;1.35;;;;;;;7.48;44.76;99974.47;4464603;32;34556;-79
2022/04/18 03:22:20;;;;;;;4.43;1.50;;;;;;;7.60;45.57;99975.75;4465171;32;35101;-79
2022/04/18 03:25:14;;;;;;;3.12;1.60;;;;;;;7.61;46.33;99976.56;4465205;32;34590;-78
2022/04/18 03:28:00;;;;;;;3.05;1.40;;;;;;;7.64;47.23;99976.00;4465631;32;34964;-81
2022/04/18 03:30:47;;;;;;;3.58;1.50;;;;;;;7.63;44.55;99971.66;4463211;32;35337;-81
2022/04/18 03:33:34;;;;;;;3.37;1.20;;;;;;;7.50;44.84;99975.81;4463049;32;35015;-80
2022/04/18 03:42:31;;;;;;;2.58;1.40;;;;;;;7.52;44.93;99970.09;4463280;32;35767;-80
2022/04/18 03:45:18;;;;;;;3.83;1.20;;;;;;;7.57;45.25;99965.41;4451902;32;34779;-80
2022/04/18 03:48:04;;;;;;;3.20;1.92;;;;;;;7.50;45.65;99962.19;4463823;32;34557;-81
2022/04/18 03:50:51;;;;;;;5.45;1.40;;;;;;;7.43;46.65;99950.78;4465575;32;35727;-80
2022/04/18 03:53:38;;;;;;;3.00;1.23;;;;;;;7.46;45.81;99958.41;4466206;32;35561;-80
2022/04/18 03:56:25;;;;;;;3.35;1.20;;;;;;;7.53;45.43;99955.34;4463967;32;34185;-80
2022/04/18 03:59:14;;;;;;;2.45;1.30;;;;;;;7.51;45.88;99946.63;4465981;32;34606;-81
2022/04/18 04:02:02;;;;;;;3.08;1.30;;;;;;;7.49;45.56;99949.66;4464155;32;35517;-81
2022/04/18 04:04:49;;;;;;;6.00;1.30;;;;;;;7.50;46.60;99945.81;4462527;32;34490;-81
2022/04/18 04:07:36;;;;;;;3.58;1.40;;;;;;;7.45;46.87;99943.13;4464942;32;35277;-81
2022/04/18 04:10:22;;;;;;;3.08;1.42;;;;;;;7.55;47.84;99947.72;4466089;32;34159;-81
2022/04/18 04:13:09;;;;;;;4.12;1.50;;;;;;;7.48;48.52;99942.56;4466342;32;35948;-81
2022/04/18 04:15:57;;;;;;;3.12;1.50;;;;;;;7.60;47.31;99950.41;4465520;32;34628;-81
2022/04/18 04:18:44;;;;;;;3.08;1.50;;;;;;;7.68;46.71;99946.25;4453781;32;33719;-81
2022/04/18 04:21:31;;;;;;;3.28;1.48;;;;;;;7.69;47.47;99937.78;4463567;32;34594;-81
2022/04/18 04:24:17;;;;;;;2.60;1.25;;;;;;;7.73;47.91;99947.00;4466401;32;34639;-81
2022/04/18 04:27:04;;;;;;;2.72;1.35;;;;;;;7.59;47.75;99944.09;4465015;32;34110;-81
2022/04/18 04:29:50;;;;;;;2.95;1.60;;;;;;;7.77;48.69;99955.44;4465839;32;34985;-81
2022/04/18 04:32:37;;;;;;;3.10;1.73;;;;;;;7.74;46.41;99950.56;4465850;32;34607;-81
2022/04/18 04:35:23;;;;;;;3.90;1.67;;;;;;;7.65;46.26;99942.97;4465986;32;34551;-81
2022/04/18 04:38:10;;;;;;;3.05;1.40;;;;;;;7.70;47.21;99944.84;4462233;32;34642;-81
2022/04/18 04:40:57;;;;;;;4.25;1.73;;;;;;;7.70;47.19;99939.41;4464472;32;33833;-82
2022/04/18 04:43:45;;;;;;;5.25;2.20;;;;;;;7.68;48.22;99948.97;4464835;32;35323;-81
2022/04/18 04:46:33;;;;;;;3.47;1.90;;;;;;;7.68;48.10;99940.78;4462105;32;34971;-81
2022/04/18 04:49:20;;;;;;;4.90;2.20;;;;;;;6.94;48.33;99943.41;4464324;32;34660;-81
2022/04/18 04:52:07;;;;;;;5.28;2.25;;;;;;;6.62;48.36;99936.44;4460767;32;34172;-81
2022/04/18 04:54:53;;;;;;;5.57;1.95;;;;;;;6.80;49.40;99942.38;4464953;32;33602;-82
2022/04/18 04:57:40;;;;;;;3.22;1.90;;;;;;;6.98;49.01;99939.03;4464887;32;36065;-82
2022/04/18 05:00:27;;;;;;;4.60;2.10;;;;;;;6.86;49.68;99933.06;4463284;32;34962;-81
2022/04/18 05:03:16;;;;;;;5.20;2.40;;;;;;;6.30;50.44;99929.47;4464378;32;34340;-81
2022/04/18 05:06:03;;;;;;;4.90;2.70;;;;;;;5.72;51.78;99939.81;4454110;32;34594;-81
2022/04/18 05:08:49;;;;;;;5.37;2.72;;;;;;;5.61;51.43;99930.03;4465131;32;35901;-81
2022/04/18 05:11:36;;;;;;;5.07;2.50;;;;;;;5.74;51.77;99936.81;4459603;32;34774;-81
2022/04/18 05:14:22;;;;;;;5.37;2.50;;;;;;;5.62;52.58;99942.53;4464065;32;35405;-81
2022/04/18 05:17:08;;;;;;;5.37;2.40;;;;;;;5.28;53.54;99940.28;4464306;32;34125;-81
2022/04/18 05:19:55;;;;;;;6.22;2.50;;;;;;;5.47;53.34;99937.91;4465231;32;35919;-81
2022/04/18 05:22:42;;;;;;;4.57;1.60;;;;;;;6.59;51.57;99937.00;4465308;32;35475;-81
2022/04/18 05:25:30;;;;;;;3.03;1.45;;;;;;;6.46;49.42;99934.84;4463088;32;33722;-82
2022/04/18 05:28:16;;;;;;;5.72;2.62;;;;;;;6.64;48.83;99936.19;4464752;32;34863;-81
2022/04/18 05:31:03;;;;;;;8.57;2.33;;;;;;;6.84;49.33;99932.56;4465197;32;34536;-82
2022/04/18 05:33:50;;;;;;;7.95;2.37;;;;;;;6.93;48.17;99933.59;4462137;32;34580;-81
2022/04/18 05:36:41;;;;;;;4.43;2.12;;;;;;;6.85;47.56;99926.81;4465267;32;33061;-81
2022/04/18 05:39:27;;;;;;;5.07;1.90;;;;;;;6.02;49.57;99930.03;4464022;32;34980;-81
2022/04/18 05:42:13;;;;;;;3.25;1.58;;;;;;;6.15;49.40;99934.94;4463720;32;35870;-81
2022/04/18 05:45:00;;;;;;;3.92;1.73;;;;;;;6.30;48.09;99929.47;4465545;32;34668;-81
2022/04/18 05:47:47;;;;;;;4.20;1.80;;;;;;;5.52;50.13;99923.47;4464891;32;33965;-81
2022/04/18 05:50:33;;;;;;;6.43;2.95;;;;;;;6.62;48.18;99931.00;4463475;32;34117;-81
2022/04/18 05:53:26;;;;;;;6.53;2.85;;;;;;;6.75;46.40;99930.41;4464884;32;35098;-80
2022/04/18 05:56:14;;;;;;;5.10;1.98;;;;;;;5.81;48.21;99930.03;4466467;32;35634;-80
2022/04/18 05:59:00;;;;;;;4.53;1.90;;;;;;;6.13;46.84;99928.94;4466521;32;34280;-80
2022/04/18 06:01:48;;;;;;;4.20;1.83;;;;;;;5.66;48.72;99927.28;4464660;32;34115;-81
2022/04/18 06:04:35;;;;;;;3.22;1.50;;;;;;;6.63;47.05;99921.75;4454232;32;35633;-80
2022/04/18 06:07:23;;;;;;;4.80;2.00;;;;;;;6.16;47.57;99924.87;4463815;32;34608;-79
2022/04/18 06:10:10;;;;;;;9.73;2.12;;;;;;;6.06;48.45;99933.84;4464787;32;34234;-79
2022/04/18 06:12:56;;;;;;;5.15;1.75;;;;;;;6.40;48.32;99928.59;4464772;32;35177;-80
2022/04/18 06:15:43;;;;;;;5.30;2.10;;;;;;;6.34;48.15;99927.00;4463933;32;34623;-80
2022/04/18 06:18:30;;;;;;;3.95;1.73;;;;;;;6.38;48.15;99924.56;4463926;32;34633;-80
2022/04/18 06:21:17;;;;;;;3.92;1.90;;;;;;;6.10;48.20;99939.56;4461960;32;34071;-80
2022/04/18 06:24:04;;;;;;;4.75;2.28;;;;;;;6.31;48.50;99928.34;4463998;32;34158;-80
2022/04/18 06:26:50;;;;;;;6.53;2.67;;;;;;;7.11;46.86;99930.22;4463292;32;35769;-80
2022/04/18 06:29:37;;;;;;;5.10;2.50;;;;;;;6.82;48.82;99935.56;4450145;32;34634;-80
2022/04/18 06:32:25;;;;;;;5.95;2.70;;;;;;;6.58;47.54;99929.12;4461507;32;33752;-81
2022/04/18 06:35:11;;;;;;;5.12;2.28;;;;;;;7.35;47.20;99933.09;4465467;32;34591;-77
2022/04/18 06:37:58;;;;;;;4.18;2.10;;;;;;;7.33;47.23;99929.84;4464038;32;35123;-76
2022/04/18 06:40:46;;;;;;;4.57;1.77;;;;;;;6.76;46.84;99934.75;4464002;32;34697;-76
2022/04/18 06:43:33;;;;;;;4.10;1.92;;;;;;;7.35;46.32;99930.38;4467213;32;34126;-76
2022/04/18 06:46:22;;;;;;;4.00;1.77;;;;;;;7.63;46.35;99928.81;4466802;32;34510;-76
2022/04/18 06:49:12;;;;;;;6.68;1.83;;;;;;;7.55;45.52;99925.87;4466206;32;34955;-76
2022/04/18 06:52:01;;;;;;;4.07;2.10;;;;;;;7.73;44.57;99927.13;4445345;32;35654;-77
2022/04/18 06:54:49;;;;;;;3.90;1.83;;;;;;;8.24;43.17;99927.47;4464897;32;35202;-77
2022/04/18 06:57:36;;;;;;;6.87;2.20;;;;;;;8.07;43.82;99936.09;4453519;32;35721;-77
2022/04/18 07:00:22;;;;;;;4.62;1.67;;;;;;;7.85;45.52;99930.28;4465018;32;35844;-77
2022/04/18 07:03:08;;;;;;;3.03;1.75;;;;;;;7.84;42.49;99928.66;4452827;32;35521;-76
2022/04/18 07:05:55;;;;;;;4.00;1.58;;;;;;;7.97;43.88;99929.91;4463566;32;35070;-77
2022/04/18 07:08:42;;;;;;;3.90;1.80;;;;;;;7.94;41.86;99923.13;4466454;32;34816;-77
2022/04/18 07:11:30;;;;;;;3.75;1.80;;;;;;;8.62;39.99;99924.09;4467299;32;36081;-78
2022/04/18 07:14:16;;;;;;;3.35;1.37;;;;;;;7.85;42.38;99933.00;4467430;32;35465;-76
2022/04/18 07:17:06;;;;;;;2.85;1.50;;;;;;;8.94;40.46;99927.00;4456116;32;34116;-77
2022/04/18 07:19:53;;;;;;;4.43;1.70;;;;;;;9.15;39.67;99926.72;4467205;32;34594;-77
2022/04/18 07:22:39;;;;;;;2.60;1.60;;;;;;;9.16;39.30;99920.13;4465632;32;35183;-75
2022/04/18 07:25:27;;;;;;;3.12;1.35;;;;;;;8.78;40.85;99925.53;4464914;32;34616;-77
2022/04/18 07:28:17;;;;;;;3.90;1.40;;;;;;;7.99;41.34;99925.78;4466103;32;34177;-77
2022/04/18 07:31:03;;;;;;;3.60;1.75;;;;;;;9.03;40.55;99932.63;4467111;32;34697;-77
2022/04/18 07:33:50;;;;;;;2.97;1.52;;;;;;;9.50;39.02;99919.91;4465179;32;35937;-76
2022/04/18 07:36:36;;;;;;;4.70;1.45;;;;;;;9.66;38.54;99918.56;4465500;32;35128;-76
2022/04/18 07:39:23;;;;;;;4.95;1.52;;;;;;;9.36;38.54;99914.38;4465537;32;34432;-77
2022/04/18 07:42:10;;;;;;;4.50;1.60;;;;;;;9.12;37.72;99921.84;4464953;32;35597;-77
2022/04/18 07:44:56;;;;;;;3.80;1.35;;;;;;;9.26;39.73;99924.66;4463667;32;34914;-77
2022/04/18 07:47:42;;;;;;;4.18;2.10;;;;;;;9.62;39.21;99922.19;4465260;32;34284;-77
2022/04/18 07:53:34;;;;;;;5.00;2.03;;;;;;;7.53;47.07;99923.44;4465326;32;34628;-77
2022/04/18 07:56:21;;;;;;;4.57;2.00;;;;;;;7.99;50.12;99930.44;4465432;32;36019;-76
2022/04/18 07:59:07;;;;;;;5.82;2.00;;;;;;;8.09;47.97;99930.34;4464230;32;35122;-76
2022/04/18 08:01:53;;;;;;;4.55;1.80;;;;;;;8.25;48.09;99931.00;4463327;32;34796;-75
2022/04/18 08:04:41;;;;;;;4.03;1.70;;;;;;;8.49;47.77;99931.06;4462858;32;34338;-76
2022/04/18 08:07:28;;;;;;;4.35;2.03;;;;;;;8.20;48.70;99931.06;4464474;32;34529;-76
2022/04/18 08:10:14;;;;;;;4.75;2.10;;;;;;;8.28;47.89;99925.81;4465100;32;34428;-76
2022/04/18 08:13:01;;;;;;;3.83;1.73;;;;;;;8.58;46.44;99923.88;4463344;32;34517;-76
2022/04/18 08:15:51;;;;;;;2.92;1.48;;;;;;;8.62;46.94;99921.34;4465432;32;34228;-76
2022/04/18 08:18:39;;;;;;;3.95;1.83;;;;;;;9.10;46.61;99913.09;4461780;32;35588;-75
2022/04/18 08:21:26;;;;;;;3.12;1.55;;;;;;;9.41;46.49;99911.56;4464345;32;34686;-75
2022/04/18 08:24:13;;;;;;;3.65;1.60;;;;;;;9.53;43.34;99907.56;4463480;32;34120;-76
2022/04/18 08:27:01;;;;;;;4.87;1.83;;;;;;;9.58;42.77;99896.53;4465281;32;34540;-76
2022/04/18 08:29:47;;;;;;;3.72;1.65;;;;;;;9.63;42.81;99897.28;4464016;32;34605;-76
2022/04/18 08:32:38;;;;;;;4.43;1.92;;;;;;;9.73;41.92;99888.06;4464442;32;35514;-76
2022/04/18 08:35:25;;;;;;;6.93;1.73;;;;;;;9.71;42.27;99886.78;4460427;32;35116;-76
2022/04/18 08:38:11;;;;;;;4.35;1.83;;;;;;;10.06;40.39;99888.06;4463955;32;35542;-76
2022/04/18 08:41:04;;;;;;;4.22;1.90;;;;;;;10.38;41.45;99878.19;4466970;32;34596;-77
2022/04/18 08:43:52;;;;;;;4.85;1.90;;;;;;;10.61;40.91;99865.41;4465721;32;35070;-77
2022/04/18 08:46:39;;;;;;;3.65;1.85;;;;;;;10.77;38.79;99864.78;4467135;32;34324;-77
2022/04/18 08:52:44;;;;;;;2.75;1.60;;;;;;;10.54;38.27;99860.34;4466901;32;34964;-77
2022/04/18 08:55:33;;;;;;;4.70;2.00;;;;;;;11.18;37.96;99855.66;4459222;32;34559;-76
2022/04/18 08:58:21;;;;;;;4.57;2.00;;;;;;;11.14;38.68;99854.66;4456814;32;34720;-77
2022/04/18 09:01:09;;;;;;;3.78;1.80;;;;;;;12.03;38.34;99861.28;4468693;32;35484;-77
2022/04/18 09:03:58;;;;;;;4.18;1.83;;;;;;;12.11;34.78;99855.00;4468034;32;35620;-77
2022/04/18 09:06:45;;;;;;;4.40;2.15;;;;;;;12.65;34.47;99846.66;4468047;32;34660;-77
2022/04/18 09:09:35;;;;;;;9.45;5.03;;;;;;;11.90;35.26;99843.78;4469256;32;35754;-78
2022/04/18 09:12:26;;;;;;;116.12;55.05;;;;;;;12.08;36.59;99846.59;4467406;32;34665;-77
2022/04/18 09:15:29;;;;;;;7.12;4.30;;;;;;;11.62;35.70;99845.81;4468767;32;35031;-76
2022/04/18 09:18:20;;;;;;;3.15;1.65;;;;;;;12.11;35.30;99835.78;4467674;32;34725;-77
2022/04/18 09:21:07;;;;;;;4.28;1.70;;;;;;;10.42;38.34;99841.69;4466977;32;34979;-77
2022/04/18 09:23:53;;;;;;;3.35;1.80;;;;;;;10.13;37.26;99850.97;4469453;32;34412;-77
2022/04/18 09:26:40;;;;;;;4.65;1.85;;;;;;;11.38;34.65;99835.16;4468557;32;35977;-77
2022/04/18 09:29:30;;;;;;;2.03;1.37;;;;;;;11.74;33.06;99830.72;4468439;32;35568;-78
2022/04/18 09:32:21;;;;;;;6.40;2.30;;;;;;;12.18;35.00;99829.03;4466583;32;34161;-77
2022/04/18 09:35:09;;;;;;;3.55;1.60;;;;;;;11.16;36.83;99826.94;4467931;32;35502;-77
2022/04/18 09:38:06;;;;;;;3.35;1.87;;;;;;;11.95;34.66;99820.84;4467807;32;34966;-77
2022/04/18 09:40:54;;;;;;;4.78;1.90;;;;;;;12.29;34.23;99819.38;4462068;32;35552;-77
2022/04/18 09:43:45;;;;;;;4.45;1.95;;;;;;;11.22;35.04;99814.72;4468973;32;34298;-76
2022/04/18 09:46:32;;;;;;;3.30;1.60;;;;;;;11.13;33.06;99809.16;4467994;32;34616;-78
2022/04/18 09:49:18;;;;;;;3.40;1.85;;;;;;;11.10;36.02;99803.47;4470144;32;35118;-77
2022/04/18 09:52:11;;;;;;;3.40;1.70;;;;;;;11.54;33.01;99807.34;4467542;32;34690;-78
2022/04/18 09:54:58;;;;;;;3.17;1.42;;;;;;;11.53;32.84;99801.06;4466360;32;35144;-77
2022/04/18 09:57:45;;;;;;;3.08;1.62;;;;;;;11.47;31.98;99796.81;4469633;32;34700;-77
2022/04/18 10:00:31;;;;;;;4.28;1.50;;;;;;;11.19;32.08;99783.22;4457341;32;35923;-76
2022/04/18 10:03:19;;;;;;;2.92;1.58;;;;;;;11.71;31.86;99783.56;4469365;32;35564;-76
2022/04/18 10:06:05;;;;;;;2.33;1.40;;;;;;;11.23;31.69;99784.22;4457435;32;35027;-76
2022/04/18 10:08:52;;;;;;;3.55;1.40;;;;;;;10.78;31.76;99775.94;4457116;32;34646;-76
2022/04/18 10:11:39;;;;;;;2.60;1.55;;;;;;;10.89;31.92;99767.50;4467820;32;35916;-77
2022/04/18 10:14:26;;;;;;;3.10;1.70;;;;;;;11.13;32.27;99770.78;4470887;32;34705;-77
2022/04/18 10:17:13;;;;;;;3.37;1.70;;;;;;;11.31;31.87;99762.66;4466823;32;35138;-78
2022/04/18 10:20:09;;;;;;;3.58;1.48;;;;;;;11.96;30.05;99767.56;4463428;32;34620;-79
2022/04/18 10:23:15;;;;;;;2.55;1.40;;;;;;;12.74;30.37;99758.69;4456083;32;34873;-80
2022/04/18 10:26:34;;;;;;;5.07;1.70;;;;;;;11.88;30.39;99763.66;4464502;32;34711;-79
2022/04/18 10:29:32;;;;;;;4.18;1.70;;;;;;;12.88;29.94;99753.03;4433277;32;34173;-79
2022/04/18 10:32:22;;;;;;;4.82;1.87;;;;;;;10.56;32.54;99748.53;4463777;32;35121;-79
2022/04/18 10:35:11;;;;;;;9.38;5.78;;;;;;;11.98;30.84;99748.84;4463130;32;34492;-79
2022/04/18 10:38:02;;;;;;;4.68;1.35;;;;;;;10.77;32.36;99744.19;4463863;32;35415;-79
2022/04/18 10:40:48;;;;;;;3.15;1.27;;;;;;;10.02;32.90;99744.72;4460200;32;33868;-79
2022/04/18 10:44:02;;;;;;;2.70;1.25;;;;;;;11.23;32.82;99742.28;4463738;32;34618;-79
2022/04/18 10:46:51;;;;;;;2.47;1.40;;;;;;;10.42;31.76;99737.59;4465556;32;35014;-79
2022/04/18 10:49:38;;;;;;;3.95;1.48;;;;;;;11.21;30.19;99742.59;4465869;32;35889;-79
2022/04/18 10:52:28;;;;;;;2.95;1.20;;;;;;;11.98;29.35;99743.34;4451983;32;33838;-78
2022/04/18 10:55:23;;;;;;;2.47;1.30;;;;;;;10.02;32.45;99734.56;4462605;32;34599;-79
2022/04/18 10:58:10;;;;;;;2.72;1.23;;;;;;;10.86;31.23;99733.28;4458738;32;34568;-77
2022/04/18 11:00:58;;;;;;;3.78;1.65;;;;;;;11.25;31.49;99735.34;4452618;32;34636;-78
2022/04/18 11:03:56;;;;;;;4.97;1.52;;;;;;;11.62;29.45;99724.28;4464099;32;35095;-78
2022/04/18 11:06:44;;;;;;;4.45;1.35;;;;;;;12.42;31.93;99715.97;4463269;32;34371;-78
2022/04/18 11:09:51;;;;;;;2.45;1.30;;;;;;;13.04;28.08;99716.47;4465081;32;34601;-79
2022/04/18 11:12:43;;;;;;;2.70;1.65;;;;;;;12.20;30.90;99714.97;4464182;32;33542;-78
2022/04/18 11:15:29;;;;;;;2.85;1.40;;;;;;;13.75;26.15;99709.69;4460332;32;35117;-79
2022/04/18 11:18:28;;;;;;;2.03;1.35;;;;;;;13.44;26.64;99705.25;4460751;32;34199;-78
2022/04/18 11:21:54;;;;;;;4.45;2.10;;;;;;;12.92;28.10;99697.06;4467537;32;35850;-75
2022/04/18 11:24:41;;;;;;;4.80;2.05;;;;;;;13.32;30.94;99702.38;4453902;32;35378;-76
2022/04/18 11:27:27;;;;;;;3.10;1.87;;;;;;;13.11;31.30;99701.41;4460664;32;33840;-76
2022/04/18 11:30:14;;;;;;;3.70;1.87;;;;;;;13.49;29.68;99696.81;4463164;32;34289;-76
2022/04/18 11:33:03;;;;;;;4.62;1.85;;;;;;;12.77;31.53;99692.06;4464815;32;34492;-76
2022/04/18 11:35:50;;;;;;;3.15;2.00;;;;;;;13.09;32.04;99700.91;4453211;32;34918;-76
2022/04/18 11:38:36;;;;;;;3.83;2.35;;;;;;;13.00;31.03;99698.97;4466356;32;34391;-76
2022/04/18 11:41:26;;;;;;;4.12;2.00;;;;;;;12.87;31.31;99696.44;4464266;32;34059;-76
2022/04/18 11:44:17;;;;;;;4.35;1.80;;;;;;;12.63;31.36;99697.72;4463850;32;35446;-77
2022/04/18 11:47:18;;;;;;;5.43;2.75;;;;;;;11.51;31.78;99699.03;4464563;32;34346;-76
2022/04/18 11:50:05;;;;;;;4.37;2.28;;;;;;;12.08;31.62;99712.84;4452490;32;35549;-74
2022/04/18 11:53:02;;;;;;;3.45;1.83;;;;;;;12.20;32.05;99703.97;4464915;32;33528;-77
2022/04/18 11:55:51;;;;;;;4.57;2.30;;;;;;;11.60;32.51;99712.78;4464463;32;34489;-75
2022/04/18 11:58:40;;;;;;;8.40;2.72;;;;;;;11.59;36.22;99711.97;4451835;32;34345;-76
2022/04/18 12:07:37;;;;;;;5.72;2.45;;;;;;;9.78;41.08;99723.81;4463763;32;35668;-75
2022/04/18 12:10:26;;;;;;;3.67;2.20;;;;;;;10.41;39.72;99713.25;4465661;32;34078;-75
2022/04/18 12:13:14;;;;;;;5.32;1.80;;;;;;;9.26;39.94;99700.47;4465779;32;34110;-75
2022/04/18 12:16:01;;;;;;;2.80;1.40;;;;;;;9.86;37.05;99690.25;4461886;32;35440;-76
2022/04/18 12:18:47;;;;;;;4.28;1.50;;;;;;;9.73;38.65;99699.28;4456379;32;34861;-77
2022/04/18 12:21:34;;;;;;;2.47;1.20;;;;;;;11.11;36.42;99688.00;4455528;32;34636;-76
2022/04/18 12:24:20;;;;;;;3.45;1.83;;;;;;;11.72;34.64;99691.03;4461356;32;35083;-76
2022/04/18 12:27:06;;;;;;;4.57;1.70;;;;;;;11.74;35.75;99688.00;4461958;32;35673;-77
2022/04/18 12:29:56;;;;;;;3.10;1.70;;;;;;;13.38;34.01;99684.56;4464183;32;33611;-77
2022/04/18 12:32:49;;;;;;;4.68;2.60;;;;;;;13.62;33.56;99677.66;4464646;32;34354;-76
2022/04/18 12:35:37;;;;;;;3.87;2.37;;;;;;;13.44;33.36;99666.72;4464413;32;35380;-79
2022/04/18 12:38:34;;;;;;;5.22;2.33;;;;;;;13.62;34.35;99666.66;4465754;32;35325;-77
2022/04/18 12:41:35;;;;;;;6.05;2.30;;;;;;;13.47;35.46;99666.06;4463331;32;36575;-76
2022/04/18 12:44:22;;;;;;;3.45;2.05;;;;;;;13.21;34.92;99668.88;4464720;32;34709;-76
2022/04/18 12:47:21;;;;;;;5.65;2.70;;;;;;;13.14;35.80;99659.47;4464902;32;34568;-77
2022/04/18 12:50:16;;;;;;;5.40;2.42;;;;;;;13.54;34.91;99650.97;4464927;32;34609;-77
2022/04/18 12:53:02;;;;;;;4.62;2.30;;;;;;;14.28;35.55;99650.37;4464146;32;35631;-77
2022/04/18 12:56:07;;;;;;;5.00;2.12;;;;;;;13.45;35.42;99648.25;4465361;32;34736;-76
2022/04/18 12:58:53;;;;;;;5.47;2.40;;;;;;;13.77;34.99;99644.03;4452414;32;33837;-77
2022/04/18 13:01:40;;;;;;;4.78;2.20;;;;;;;14.42;34.88;99630.00;4464108;32;35170;-76
2022/04/18 13:04:27;;;;;;;3.35;2.00;;;;;;;14.03;33.26;99626.56;4465308;32;35123;-78
2022/04/18 13:07:14;;;;;;;3.85;2.08;;;;;;;13.74;33.83;99619.94;4463898;32;35440;-76
2022/04/18 13:10:02;;;;;;;5.37;2.25;;;;;;;13.31;34.86;99618.19;4463358;32;34208;-77
2022/04/18 13:12:57;;;;;;;4.78;2.65;;;;;;;13.91;35.10;99611.56;4456416;32;91129;-77
2022/04/18 13:15:48;;;;;;;6.20;2.33;;;;;;;14.26;34.27;99614.09;4454012;32;36269;-77
2022/04/18 13:18:37;;;;;;;4.43;2.40;;;;;;;14.21;34.68;99605.22;4465488;32;34645;-77
2022/04/18 13:21:24;;;;;;;4.57;2.37;;;;;;;13.80;34.03;99606.78;4465625;32;34190;-78
2022/04/18 13:24:11;;;;;;;4.90;2.47;;;;;;;14.18;32.39;99604.75;4454520;32;34142;-77
2022/04/18 13:27:39;;;;;;;;;;;;;;;;;;;;;
2022/04/18 13:31:01;;;;;;;3.53;2.15;;;;;;;14.03;31.46;99599.00;4419893;32;34240;-77
2022/04/18 13:33:48;;;;;;;3.33;2.10;;;;;;;13.63;33.34;99585.66;4412544;32;34804;-77
2022/04/18 13:36:37;;;;;;;4.10;2.00;;;;;;;14.66;32.90;99586.06;4411838;32;35570;-77
2022/04/18 13:39:24;;;;;;;4.10;2.12;;;;;;;14.65;30.57;99580.84;4429204;32;34628;-77
2022/04/18 13:42:11;;;;;;;4.45;2.35;;;;;;;14.18;31.72;99579.16;4429106;32;34597;-77
2022/04/18 13:44:57;;;;;;;3.62;1.60;;;;;;;13.74;33.21;99581.37;4418893;32;34045;-77
2022/04/18 13:47:43;;;;;;;5.20;2.45;;;;;;;14.06;32.23;99584.56;4432051;32;34489;-76